createdAt,value
2022-10-24T00:01:47.966Z,13.44
2022-10-24T00:04:16.067Z,13.42
2022-10-24T00:06:44.348Z,13.40
2022-10-24T00:09:12.535Z,13.40
2022-10-24T00:11:43.803Z,13.39
2022-10-24T00:14:12.142Z,13.37
2022-10-24T00:16:40.265Z,13.39
2022-10-24T00:19:09.893Z,13.37
2022-10-24T00:21:38.107Z,13.34
2022-10-24T00:24:07.586Z,13.34
2022-10-24T00:26:36.413Z,13.34
2022-10-24T00:29:05.186Z,13.33
2022-10-24T00:31:33.633Z,13.34
2022-10-24T00:34:02.264Z,13.34
2022-10-24T00:36:32.011Z,13.32
2022-10-24T00:39:00.601Z,13.29
2022-10-24T00:41:31.337Z,13.30
2022-10-24T00:44:21.576Z,13.28
2022-10-24T00:46:54.309Z,13.29
2022-10-24T00:49:27.092Z,13.28
2022-10-24T00:52:02.905Z,13.29
2022-10-24T00:54:31.737Z,13.24
2022-10-24T00:57:06.309Z,13.24
2022-10-24T00:59:36.424Z,13.23
2022-10-24T01:02:05.222Z,13.23
2022-10-24T01:04:33.301Z,13.21
2022-10-24T01:07:19.682Z,13.19
2022-10-24T01:10:20.597Z,13.18
2022-10-24T01:12:57.350Z,13.19
2022-10-24T01:15:35.001Z,13.17
2022-10-24T01:18:08.018Z,13.16
2022-10-24T01:21:06.852Z,13.17
2022-10-24T01:24:07.377Z,13.17
2022-10-24T01:27:23.466Z,13.12
2022-10-24T01:30:02.756Z,13.10
2022-10-24T01:32:49.732Z,13.09
2022-10-24T01:35:26.943Z,13.07
2022-10-24T01:38:04.049Z,13.05
2022-10-24T01:40:36.438Z,13.03
2022-10-24T01:43:09.700Z,13.01
2022-10-24T01:45:43.275Z,13.01
2022-10-24T01:48:15.952Z,13.01
2022-10-24T01:50:47.210Z,13.02
2022-10-24T01:53:18.139Z,13.00
2022-10-24T01:55:49.897Z,12.98
2022-10-24T01:58:18.178Z,12.99
2022-10-24T02:00:49.706Z,12.98
2022-10-24T02:03:21.231Z,12.96
2022-10-24T02:05:52.817Z,12.96
2022-10-24T02:08:25.466Z,12.96
2022-10-24T02:10:58.026Z,12.96
2022-10-24T02:13:30.543Z,12.95
2022-10-24T02:16:02.913Z,12.97
2022-10-24T02:18:32.086Z,12.95
2022-10-24T02:21:08.368Z,12.96
2022-10-24T02:23:43.539Z,12.93
2022-10-24T02:26:19.795Z,12.92
2022-10-24T02:28:52.547Z,12.93
2022-10-24T02:31:27.022Z,12.92
2022-10-24T02:33:56.970Z,12.89
2022-10-24T02:36:30.515Z,12.90
2022-10-24T02:39:00.192Z,12.92
2022-10-24T02:41:34.008Z,12.91
2022-10-24T02:44:03.871Z,12.92
2022-10-24T02:46:34.871Z,12.91
2022-10-24T02:49:04.698Z,12.90
2022-10-24T02:51:35.534Z,12.91
2022-10-24T02:54:04.201Z,12.90
2022-10-24T02:56:32.949Z,12.91
2022-10-24T02:59:01.192Z,12.90
2022-10-24T03:01:29.556Z,12.91
2022-10-24T03:03:59.268Z,12.91
2022-10-24T03:06:27.770Z,12.92
2022-10-24T03:08:55.857Z,12.93
2022-10-24T03:11:24.342Z,12.92
2022-10-24T03:13:52.972Z,12.90
2022-10-24T03:16:21.144Z,12.90
2022-10-24T03:18:49.264Z,12.90
2022-10-24T03:21:18.840Z,12.90
2022-10-24T03:23:46.959Z,12.89
2022-10-24T03:26:15.130Z,12.89
2022-10-24T03:28:43.240Z,12.89
2022-10-24T03:31:11.454Z,12.88
2022-10-24T03:33:39.636Z,12.88
2022-10-24T03:36:08.107Z,12.87
2022-10-24T03:38:37.696Z,12.89
2022-10-24T03:41:06.408Z,12.89
2022-10-24T03:43:34.588Z,12.90
2022-10-24T03:46:02.722Z,12.85
2022-10-24T03:48:30.797Z,12.81
2022-10-24T03:50:58.974Z,12.78
2022-10-24T03:53:27.289Z,12.77
2022-10-24T03:55:57.505Z,12.76
2022-10-24T03:58:26.069Z,12.76
2022-10-24T04:00:56.990Z,12.74
2022-10-24T04:03:25.624Z,12.77
2022-10-24T04:05:54.064Z,12.77
2022-10-24T04:08:22.693Z,12.77
2022-10-24T04:10:50.932Z,12.78
2022-10-24T04:13:20.380Z,12.79
2022-10-24T04:15:48.519Z,12.77
2022-10-24T04:18:16.588Z,12.78
2022-10-24T04:20:44.711Z,12.73
2022-10-24T04:23:12.780Z,12.75
2022-10-24T04:25:41.526Z,12.75
2022-10-24T04:28:09.696Z,12.75
2022-10-24T04:30:39.319Z,12.74
2022-10-24T04:33:07.792Z,12.75
2022-10-24T04:35:35.905Z,12.76
2022-10-24T04:38:04.105Z,12.78
2022-10-24T04:40:32.220Z,12.79
2022-10-24T04:43:00.331Z,12.79
2022-10-24T04:45:28.616Z,12.79
2022-10-24T04:47:58.155Z,12.78
2022-10-24T04:50:26.228Z,12.77
2022-10-24T04:52:54.262Z,12.77
2022-10-24T04:55:22.424Z,12.76
2022-10-24T04:57:50.699Z,12.76
2022-10-24T05:00:18.948Z,12.78
2022-10-24T05:02:47.066Z,12.78
2022-10-24T05:05:17.254Z,12.79
2022-10-24T05:07:45.753Z,12.79
2022-10-24T05:10:15.048Z,12.79
2022-10-24T05:12:44.622Z,12.82
2022-10-24T05:15:14.445Z,12.81
2022-10-24T05:17:42.857Z,12.84
2022-10-24T05:20:11.875Z,12.88
2022-10-24T05:22:41.469Z,12.90
2022-10-24T05:25:10.393Z,12.91
2022-10-24T05:27:38.797Z,12.94
2022-10-24T05:30:08.021Z,12.92
2022-10-24T05:32:39.725Z,12.89
2022-10-24T05:35:09.519Z,12.89
2022-10-24T05:37:39.150Z,12.88
2022-10-24T05:40:10.838Z,12.86
2022-10-24T05:42:39.062Z,12.85
2022-10-24T05:45:08.553Z,12.81
2022-10-24T05:47:36.666Z,12.77
2022-10-24T05:50:05.977Z,12.75
2022-10-24T05:52:36.544Z,12.74
2022-10-24T05:55:07.983Z,12.73
2022-10-24T05:57:38.926Z,12.72
2022-10-24T06:00:09.049Z,12.71
2022-10-24T06:02:37.339Z,12.72
2022-10-24T06:05:06.149Z,12.71
2022-10-24T06:07:35.336Z,12.71
2022-10-24T06:10:04.269Z,12.70
2022-10-24T06:12:33.174Z,12.69
2022-10-24T06:15:03.579Z,12.66
2022-10-24T06:17:32.024Z,12.67
2022-10-24T06:20:00.101Z,12.65
2022-10-24T06:22:29.936Z,12.63
2022-10-24T06:24:58.474Z,12.62
2022-10-24T06:27:26.598Z,12.58
2022-10-24T06:29:54.876Z,12.55
2022-10-24T06:32:24.573Z,12.52
2022-10-24T06:34:52.613Z,12.52
2022-10-24T06:37:21.140Z,12.58
2022-10-24T06:39:49.192Z,12.61
2022-10-24T06:42:17.381Z,12.63
2022-10-24T06:44:45.451Z,12.65
2022-10-24T06:47:13.591Z,12.66
2022-10-24T06:49:43.418Z,12.65
2022-10-24T06:52:11.576Z,12.65
2022-10-24T06:54:41.288Z,12.65
2022-10-24T06:57:09.564Z,12.68
2022-10-24T06:59:37.778Z,12.69
2022-10-24T07:02:06.281Z,12.72
2022-10-24T07:04:34.695Z,12.74
2022-10-24T07:07:04.198Z,12.74
2022-10-24T07:09:32.276Z,12.71
2022-10-24T07:12:00.565Z,12.70
2022-10-24T07:14:28.748Z,12.69
2022-10-24T07:16:56.816Z,12.70
2022-10-24T07:19:24.952Z,12.73
2022-10-24T07:21:53.027Z,12.76
2022-10-24T07:24:22.819Z,12.79
2022-10-24T07:26:51.413Z,12.81
2022-10-24T07:29:19.841Z,12.83
2022-10-24T07:31:49.388Z,12.90
2022-10-24T07:34:17.590Z,12.92
2022-10-24T07:36:45.859Z,12.94
2022-10-24T07:39:14.811Z,12.98
2022-10-24T07:41:44.552Z,13.01
2022-10-24T07:44:12.615Z,13.04
2022-10-24T07:46:42.785Z,13.08
2022-10-24T07:49:11.152Z,13.13
2022-10-24T07:51:39.464Z,13.17
2022-10-24T07:54:07.623Z,13.21
2022-10-24T07:56:36.055Z,13.28
2022-10-24T07:59:09.339Z,13.33
2022-10-24T08:01:41.916Z,13.35
2022-10-24T08:04:11.085Z,13.39
2022-10-24T08:06:40.826Z,13.41
2022-10-24T08:09:08.896Z,13.43
2022-10-24T08:11:37.090Z,13.46
2022-10-24T08:14:06.718Z,13.47
2022-10-24T08:16:34.945Z,13.48
2022-10-24T08:19:03.057Z,13.47
2022-10-24T08:21:31.852Z,13.45
2022-10-24T08:23:59.991Z,13.44
2022-10-24T08:26:28.145Z,13.46
2022-10-24T08:28:57.761Z,13.47
2022-10-24T08:31:27.627Z,13.45
2022-10-24T08:33:56.880Z,13.44
2022-10-24T08:36:27.295Z,13.40
2022-10-24T08:38:55.551Z,13.41
2022-10-24T08:41:30.398Z,13.40
2022-10-24T08:44:01.234Z,13.42
2022-10-24T08:46:50.432Z,13.42
2022-10-24T08:49:36.004Z,13.38
2022-10-24T08:52:13.312Z,13.38
2022-10-24T08:54:43.784Z,13.42
2022-10-24T08:57:21.124Z,13.45
2022-10-24T08:59:49.942Z,13.45
2022-10-24T09:02:24.226Z,13.40
2022-10-24T09:04:56.513Z,13.39
2022-10-24T09:10:06.490Z,13.41
2022-10-24T09:12:36.299Z,13.43
2022-10-24T09:15:15.096Z,13.46
2022-10-24T09:17:45.608Z,13.46
2022-10-24T09:20:25.746Z,13.49
2022-10-24T09:22:55.694Z,13.50
2022-10-24T09:25:29.682Z,13.54
2022-10-24T09:27:59.857Z,13.57
2022-10-24T09:30:32.989Z,13.59
2022-10-24T09:33:12.875Z,13.64
2022-10-24T09:35:41.580Z,13.71
2022-10-24T09:38:33.714Z,13.78
2022-10-24T09:41:05.341Z,13.87
2022-10-24T09:43:35.280Z,13.87
2022-10-24T09:46:06.776Z,14.00
2022-10-24T09:48:39.962Z,14.03
2022-10-24T09:51:09.548Z,14.11
2022-10-24T09:53:41.040Z,14.18
2022-10-24T09:56:10.719Z,14.24
2022-10-24T09:58:39.208Z,14.33
2022-10-24T10:01:08.968Z,14.39
2022-10-24T10:03:38.678Z,14.39
2022-10-24T10:06:17.549Z,14.37
2022-10-24T10:08:51.498Z,14.42
2022-10-24T10:11:26.955Z,14.44
2022-10-24T10:13:55.809Z,14.46
2022-10-24T10:16:27.118Z,14.49
2022-10-24T10:19:04.337Z,14.53
2022-10-24T10:21:55.806Z,14.68
2022-10-24T10:24:29.685Z,14.83
2022-10-24T10:26:57.902Z,14.91
2022-10-24T10:29:26.017Z,15.02
2022-10-24T10:32:01.702Z,15.15
2022-10-24T10:34:39.371Z,15.26
2022-10-24T10:37:30.470Z,15.36
2022-10-24T10:40:17.664Z,15.41
2022-10-24T10:42:54.887Z,15.44
2022-10-24T10:45:36.083Z,15.46
2022-10-24T10:48:21.521Z,15.50
2022-10-24T10:51:01.295Z,15.58
2022-10-24T10:53:40.563Z,15.63
2022-10-24T10:56:20.777Z,15.69
2022-10-24T10:59:01.126Z,15.81
2022-10-24T11:01:38.789Z,15.79
2022-10-24T11:04:15.574Z,15.93
2022-10-24T11:06:51.129Z,16.05
2022-10-24T11:09:31.038Z,16.21
2022-10-24T11:12:06.620Z,16.33
2022-10-24T11:14:38.080Z,16.39
2022-10-24T11:17:10.974Z,16.26
2022-10-24T11:19:54.883Z,16.31
2022-10-24T11:22:28.385Z,16.34
2022-10-24T11:25:01.577Z,16.55
2022-10-24T11:27:36.465Z,16.75
2022-10-24T11:30:10.029Z,16.95
2022-10-24T11:32:43.831Z,17.10
2022-10-24T11:35:23.646Z,17.15
2022-10-24T11:38:00.592Z,17.20
2022-10-24T11:40:30.884Z,17.27
2022-10-24T11:43:05.466Z,17.36
2022-10-24T11:45:43.275Z,17.34
2022-10-24T11:48:15.657Z,17.31
2022-10-24T11:50:48.585Z,17.20
2022-10-24T11:53:27.739Z,17.23
2022-10-24T11:56:01.043Z,17.32
2022-10-24T11:58:33.565Z,17.37
2022-10-24T12:01:27.278Z,17.35
2022-10-24T12:04:20.133Z,17.13
2022-10-24T12:07:05.726Z,16.90
2022-10-24T12:10:00.495Z,16.56
2022-10-24T12:12:49.873Z,16.38
2022-10-24T12:15:32.947Z,16.17
2022-10-24T12:18:09.596Z,16.00
2022-10-24T12:20:39.683Z,15.91
2022-10-24T12:23:08.580Z,15.83
2022-10-24T12:25:39.148Z,15.74
2022-10-24T12:28:09.705Z,15.69
2022-10-24T12:30:38.646Z,15.64
2022-10-24T12:33:13.606Z,15.59
2022-10-24T12:35:59.788Z,15.53
2022-10-24T12:39:07.929Z,15.48
2022-10-24T12:41:45.050Z,15.45
2022-10-24T12:44:42.439Z,15.39
2022-10-24T12:47:41.619Z,15.41
2022-10-24T12:50:46.725Z,15.60
2022-10-24T12:53:20.308Z,15.58
2022-10-24T12:56:11.011Z,15.65
2022-10-24T12:58:42.780Z,15.70
2022-10-24T13:01:24.384Z,15.76
2022-10-24T13:04:41.493Z,15.78
2022-10-24T13:07:30.510Z,15.77
2022-10-24T13:10:13.889Z,15.82
2022-10-24T13:12:56.214Z,15.82
2022-10-24T13:15:33.446Z,15.87
2022-10-24T13:18:21.461Z,15.90
2022-10-24T13:20:51.291Z,16.00
2022-10-24T13:23:25.135Z,16.19
2022-10-24T13:25:56.634Z,16.23
2022-10-24T13:28:36.133Z,16.32
2022-10-24T13:31:43.014Z,16.50
2022-10-24T13:34:34.185Z,16.58
2022-10-24T13:37:08.230Z,16.58
2022-10-24T13:39:42.430Z,16.55
2022-10-24T13:42:24.535Z,16.52
2022-10-24T13:44:57.271Z,16.51
2022-10-24T13:47:32.761Z,16.49
2022-10-24T13:50:05.235Z,16.44
2022-10-24T13:52:40.479Z,16.32
2022-10-24T13:55:23.029Z,16.30
2022-10-24T13:57:54.637Z,16.28
2022-10-24T14:00:26.088Z,16.23
2022-10-24T14:02:56.234Z,16.09
2022-10-24T14:05:33.357Z,16.06
2022-10-24T14:08:02.515Z,15.99
2022-10-24T14:10:32.164Z,15.95
2022-10-24T14:13:01.482Z,15.93
2022-10-24T14:15:33.134Z,15.92
2022-10-24T14:18:07.262Z,15.87
2022-10-24T14:20:37.380Z,15.81
2022-10-24T14:23:24.481Z,15.76
2022-10-24T14:25:57.680Z,15.74
2022-10-24T14:28:30.272Z,15.72
2022-10-24T14:31:00.604Z,15.57
2022-10-24T14:33:31.421Z,15.54
2022-10-24T14:36:02.879Z,15.44
2022-10-24T14:38:30.922Z,15.35
2022-10-24T14:41:09.039Z,15.25
2022-10-24T14:43:42.197Z,15.21
2022-10-24T14:46:33.497Z,15.27
2022-10-24T14:49:22.071Z,15.35
2022-10-24T14:54:23.921Z,15.24
2022-10-24T14:56:54.536Z,15.23
2022-10-24T14:59:27.404Z,15.15
2022-10-24T15:01:57.453Z,15.09
2022-10-24T15:04:45.938Z,15.01
2022-10-24T15:07:20.984Z,14.95
2022-10-24T15:09:54.256Z,14.87
2022-10-24T15:12:27.649Z,14.85
2022-10-24T15:14:57.248Z,14.85
2022-10-24T15:17:32.710Z,14.82
2022-10-24T15:20:05.579Z,14.79
2022-10-24T15:22:36.582Z,14.76
2022-10-24T15:25:10.260Z,14.73
2022-10-24T15:27:41.554Z,14.71
2022-10-24T15:30:15.745Z,14.70
2022-10-24T15:32:43.995Z,14.67
2022-10-24T15:35:14.263Z,14.62
2022-10-24T15:37:53.495Z,14.60
2022-10-24T15:40:24.687Z,14.55
2022-10-24T15:42:53.251Z,14.53
2022-10-24T15:45:22.216Z,14.51
2022-10-24T15:47:52.165Z,14.49
2022-10-24T15:52:57.916Z,14.42
2022-10-24T15:55:28.812Z,14.43
2022-10-24T15:57:59.859Z,14.42
2022-10-24T16:00:27.957Z,14.42
2022-10-24T16:03:00.869Z,14.40
2022-10-24T16:05:36.095Z,14.37
2022-10-24T16:08:04.448Z,14.34
2022-10-24T16:10:32.903Z,14.35
2022-10-24T16:13:01.077Z,14.34
2022-10-24T16:18:01.278Z,14.28
2022-10-24T16:20:30.925Z,14.28
2022-10-24T16:22:59.045Z,14.23
2022-10-24T16:25:30.152Z,14.27
2022-10-24T16:27:58.702Z,14.19
2022-10-24T16:30:30.036Z,14.17
2022-10-24T16:32:58.586Z,14.11
2022-10-24T16:35:29.148Z,14.10
2022-10-24T16:38:00.468Z,14.09
2022-10-24T16:40:29.771Z,14.04
2022-10-24T16:43:02.086Z,13.99
2022-10-24T16:45:30.420Z,14.06
2022-10-24T16:47:58.463Z,13.97
2022-10-24T16:50:29.082Z,13.92
2022-10-24T16:53:03.088Z,13.90
2022-10-24T16:55:32.527Z,13.85
2022-10-24T16:58:00.979Z,13.84
2022-10-24T17:00:30.419Z,13.82
2022-10-24T17:02:59.253Z,13.78
2022-10-24T17:05:29.251Z,13.76
2022-10-24T17:07:58.828Z,13.73
2022-10-24T17:10:27.099Z,13.70
2022-10-24T17:12:56.089Z,13.66
2022-10-24T17:15:24.596Z,13.64
2022-10-24T17:17:52.868Z,13.62
2022-10-24T17:20:21.214Z,13.58
2022-10-24T17:22:49.820Z,13.56
2022-10-24T17:25:22.619Z,13.55
2022-10-24T17:27:51.401Z,13.51
2022-10-24T17:30:22.045Z,13.50
2022-10-24T17:32:50.730Z,13.47
2022-10-24T17:35:21.684Z,13.49
2022-10-24T17:38:02.712Z,13.45
2022-10-24T17:40:41.527Z,13.42
2022-10-24T17:43:20.679Z,13.42
2022-10-24T17:45:49.646Z,13.40
2022-10-24T17:48:18.049Z,13.40
2022-10-24T17:50:46.692Z,13.38
2022-10-24T17:53:15.452Z,13.37
2022-10-24T17:55:47.147Z,13.35
2022-10-24T17:58:16.609Z,13.33
2022-10-24T18:00:45.834Z,13.32
2022-10-24T18:03:15.046Z,13.31
2022-10-24T18:05:43.382Z,13.28
2022-10-24T18:08:14.538Z,13.28
2022-10-24T18:10:44.439Z,13.28
2022-10-24T18:13:12.580Z,13.28
2022-10-24T18:15:40.782Z,13.26
2022-10-24T18:18:09.720Z,13.27
2022-10-24T18:20:38.141Z,13.25
2022-10-24T18:23:06.312Z,13.23
2022-10-24T18:25:34.629Z,13.22
2022-10-24T18:28:04.292Z,13.22
2022-10-24T18:30:32.636Z,13.21
2022-10-24T18:33:00.786Z,13.21
2022-10-24T18:35:33.141Z,13.19
2022-10-24T18:38:02.187Z,13.19
2022-10-24T18:40:33.441Z,13.20
2022-10-24T18:43:05.586Z,13.19
2022-10-24T18:45:34.812Z,13.16
2022-10-24T18:48:03.625Z,13.16
2022-10-24T18:50:32.197Z,13.17
2022-10-24T18:53:06.061Z,13.14
2022-10-24T18:55:35.940Z,13.13
2022-10-24T18:58:05.860Z,13.11
2022-10-24T19:00:38.227Z,13.12
2022-10-24T19:03:18.145Z,13.12
2022-10-24T19:05:51.996Z,13.13
2022-10-24T19:08:25.386Z,13.13
2022-10-24T19:10:56.541Z,13.13
2022-10-24T19:13:28.180Z,13.13
2022-10-24T19:16:00.378Z,13.13
2022-10-24T19:18:31.212Z,13.12
2022-10-24T19:20:59.891Z,13.13
2022-10-24T19:23:28.520Z,13.12
2022-10-24T19:25:57.149Z,13.10
2022-10-24T19:28:27.547Z,13.10
2022-10-24T19:30:56.180Z,13.10
2022-10-24T19:33:28.108Z,13.09
2022-10-24T19:35:56.438Z,13.08
2022-10-24T19:38:25.581Z,13.07
2022-10-24T19:40:55.426Z,13.08
2022-10-24T19:43:25.898Z,13.07
2022-10-24T19:46:20.836Z,13.07
2022-10-24T19:48:44.712Z,13.08
2022-10-24T19:51:14.616Z,13.05
2022-10-24T19:53:44.164Z,13.04
2022-10-24T19:56:14.058Z,13.03
2022-10-24T19:58:43.414Z,13.01
2022-10-24T20:01:15.973Z,13.00
2022-10-24T20:03:46.178Z,13.00
2022-10-24T20:06:15.755Z,13.01
2022-10-24T20:08:44.346Z,13.02
2022-10-24T20:11:12.713Z,13.01
2022-10-24T20:13:41.437Z,13.01
2022-10-24T20:16:10.596Z,13.01
2022-10-24T20:18:43.721Z,12.99
2022-10-24T20:21:15.083Z,12.99
2022-10-24T20:23:43.689Z,13.01
2022-10-24T20:26:14.142Z,13.02
2022-10-24T20:28:44.301Z,13.03
2022-10-24T20:31:21.100Z,13.02
2022-10-24T20:33:51.122Z,13.05
2022-10-24T20:36:21.098Z,13.08
2022-10-24T20:38:49.536Z,13.12
2022-10-24T20:41:17.792Z,13.14
2022-10-24T20:43:46.060Z,13.13
2022-10-24T20:46:14.573Z,13.15
2022-10-24T20:48:42.771Z,13.11
2022-10-24T20:51:14.721Z,13.13
2022-10-24T20:53:43.690Z,13.13
2022-10-24T20:56:13.951Z,13.13
2022-10-24T20:58:44.109Z,13.13
2022-10-24T21:01:14.368Z,13.11
2022-10-24T21:03:43.474Z,13.11
2022-10-24T21:06:19.180Z,13.11
2022-10-24T21:08:49.832Z,13.09
2022-10-24T21:11:20.133Z,13.07
2022-10-24T21:13:48.612Z,13.07
2022-10-24T21:16:16.919Z,13.05
2022-10-24T21:18:45.049Z,13.07
2022-10-24T21:21:16.607Z,13.04
2022-10-24T21:23:44.865Z,13.03
2022-10-24T21:26:15.099Z,13.03
2022-10-24T21:28:43.315Z,13.03
2022-10-24T21:31:14.475Z,13.00
2022-10-24T21:33:43.224Z,13.01
2022-10-24T21:36:14.104Z,12.97
2022-10-24T21:38:46.970Z,12.97
2022-10-24T21:41:15.749Z,12.96
2022-10-24T21:43:44.553Z,12.95
2022-10-24T21:46:15.240Z,12.95
2022-10-24T21:48:44.715Z,12.93
2022-10-24T21:51:14.746Z,12.92
2022-10-24T21:53:46.085Z,12.90
2022-10-24T21:56:16.997Z,12.88
2022-10-24T21:58:48.295Z,12.88
2022-10-24T22:01:18.703Z,12.86
2022-10-24T22:03:47.199Z,12.85
2022-10-24T22:06:17.081Z,12.84
2022-10-24T22:08:48.349Z,12.83
2022-10-24T22:11:18.394Z,12.83
2022-10-24T22:13:46.994Z,12.80
2022-10-24T22:16:18.755Z,12.81
2022-10-24T22:18:47.655Z,12.80
2022-10-24T22:21:24.546Z,12.83
2022-10-24T22:23:55.818Z,12.82
2022-10-24T22:26:24.439Z,12.83
2022-10-24T22:28:52.947Z,12.81
2022-10-24T22:31:21.595Z,12.79
2022-10-24T22:33:50.724Z,12.77
2022-10-24T22:36:25.030Z,12.74
2022-10-24T22:38:56.494Z,12.74
2022-10-24T22:41:25.168Z,12.73
2022-10-24T22:43:53.809Z,12.72
2022-10-24T22:46:35.320Z,12.73
2022-10-24T22:51:43.454Z,12.69
2022-10-24T22:54:18.164Z,12.69
2022-10-24T22:56:47.066Z,12.67
2022-10-24T22:59:15.841Z,12.65
2022-10-24T23:01:56.928Z,12.65
2022-10-24T23:04:34.554Z,12.63
2022-10-24T23:07:12.684Z,12.62
2022-10-24T23:09:42.371Z,12.60
2022-10-24T23:12:14.960Z,12.60
2022-10-24T23:14:44.204Z,12.58
2022-10-24T23:17:15.293Z,12.57
2022-10-24T23:19:47.000Z,12.56
2022-10-24T23:22:23.201Z,12.55
2022-10-24T23:24:54.568Z,12.55
2022-10-24T23:27:31.489Z,12.53
2022-10-24T23:30:00.243Z,12.52
2022-10-24T23:32:30.321Z,12.53
2022-10-24T23:35:01.206Z,12.53
2022-10-24T23:37:34.874Z,12.54
2022-10-24T23:40:19.545Z,12.51
2022-10-24T23:42:48.957Z,12.52
2022-10-24T23:45:18.945Z,12.51
2022-10-24T23:47:59.456Z,12.50
2022-10-24T23:50:34.703Z,12.48
2022-10-24T23:53:15.525Z,12.50
2022-10-24T23:55:46.279Z,12.48
2022-10-24T23:58:14.437Z,12.46
